Time;durP1;ratioP1;P1;durP2;ratioP2;P2;SDS_P1;SDS_P2;PMS_P1;PMS_P2;Temp;Humidity;BMP_temperature;BMP_pressure;BME280_temperature;BME280_humidity;BME280_pressure;Samples;Min_cycle;Max_cycle;Signal;HPM_P1;HPM_P2
2021/10/24 00:00:02;;;;;;;10.63;7.85;;;;;;;3.96;70.88;101557.13;4978088;28;20054;-82
2021/10/24 00:02:31;;;;;;;14.15;7.95;;;;;;;3.93;70.39;101559.53;4978004;28;20055;-82
2021/10/24 00:04:59;;;;;;;10.55;7.72;;;;;;;3.93;70.75;101563.13;4987794;28;20069;-82
2021/10/24 00:07:29;;;;;;;10.77;7.82;;;;;;;3.91;71.12;101551.50;4978748;28;20411;-82
2021/10/24 00:09:56;;;;;;;12.18;7.55;;;;;;;3.92;71.29;101557.84;4978865;28;20050;-82
2021/10/24 00:12:25;;;;;;;13.82;9.07;;;;;;;3.88;71.22;101546.47;4993403;28;20419;-82
2021/10/24 00:14:52;;;;;;;11.25;7.20;;;;;;;3.88;71.03;101549.22;4997837;28;20395;-82
2021/10/24 00:17:19;;;;;;;10.23;7.25;;;;;;;3.90;70.76;101543.47;4998154;28;20050;-82
2021/10/24 00:19:47;;;;;;;13.25;7.97;;;;;;;3.86;71.25;101548.63;4994270;28;20055;-80
2021/10/24 00:22:14;;;;;;;10.73;7.63;;;;;;;3.88;71.37;101545.63;4995534;28;20047;-82
2021/10/24 00:24:42;;;;;;;12.57;8.23;;;;;;;3.88;71.42;101540.94;4997260;28;20055;-82
2021/10/24 00:27:09;;;;;;;10.52;7.63;;;;;;;3.83;71.29;101540.84;4994970;28;20057;-82
2021/10/24 00:29:39;;;;;;;10.88;7.93;;;;;;;3.81;71.02;101554.03;4984600;28;20602;-84
2021/10/24 00:32:07;;;;;;;13.15;8.23;;;;;;;3.78;71.36;101544.34;4997439;28;20502;-83
2021/10/24 00:34:34;;;;;;;12.68;8.05;;;;;;;3.75;70.92;101539.31;4993036;28;20058;-83
2021/10/24 00:37:04;;;;;;;11.70;8.27;;;;;;;3.78;70.74;101540.72;4977842;28;20058;-82
2021/10/24 00:39:32;;;;;;;11.40;8.27;;;;;;;3.78;70.81;101551.75;4979840;28;20061;-82
2021/10/24 00:42:00;;;;;;;10.70;7.93;;;;;;;3.77;70.95;101547.34;4997088;28;20065;-82
2021/10/24 00:44:29;;;;;;;11.93;7.93;;;;;;;3.75;71.38;101553.09;5001444;28;20074;-82
2021/10/24 00:46:58;;;;;;;13.88;8.63;;;;;;;3.74;71.23;101545.06;4999916;28;20046;-82
2021/10/24 00:49:29;;;;;;;13.43;8.82;;;;;;;3.70;71.51;101538.38;4997388;28;20058;-83
2021/10/24 00:51:57;;;;;;;12.50;8.23;;;;;;;3.69;70.61;101539.44;5001386;28;20051;-83
2021/10/24 00:54:27;;;;;;;12.98;8.38;;;;;;;3.68;70.89;101533.09;5001320;28;20065;-83
2021/10/24 00:56:55;;;;;;;11.07;7.95;;;;;;;3.71;70.96;101540.03;5000377;28;20054;-82
2021/10/24 00:59:23;;;;;;;11.25;7.57;;;;;;;3.70;71.07;101541.97;4999955;28;20066;-83
2021/10/24 01:01:51;;;;;;;10.95;8.23;;;;;;;3.66;71.42;101541.59;4999733;28;20057;-83
2021/10/24 01:04:20;;;;;;;10.60;7.88;;;;;;;3.59;71.13;101535.41;5000639;28;20054;-83
2021/10/24 01:06:51;;;;;;;20.27;8.53;;;;;;;3.55;70.89;101542.47;5000649;28;20050;-83
2021/10/24 01:09:21;;;;;;;10.95;7.95;;;;;;;3.52;71.21;101537.41;5000420;28;20446;-83
2021/10/24 01:11:49;;;;;;;;;;;;;;;3.48;71.79;101536.22;5000139;28;20061;-83
2021/10/24 01:14:16;;;;;;;11.50;8.20;;;;;;;3.39;71.64;101530.25;5000010;28;20363;-83
2021/10/24 01:16:45;;;;;;;10.80;8.07;;;;;;;3.46;71.00;101532.88;5000276;28;20510;-82
2021/10/24 01:19:14;;;;;;;13.00;8.55;;;;;;;3.48;71.67;101532.63;5000126;28;20050;-82
2021/10/24 01:21:43;;;;;;;12.73;8.30;;;;;;;3.50;71.20;101524.97;5000738;28;20062;-82
2021/10/24 01:24:16;;;;;;;12.75;9.27;;;;;;;3.49;71.25;101529.66;4999824;28;20065;-82
2021/10/24 01:26:44;;;;;;;11.63;9.18;;;;;;;3.49;71.50;101521.41;4998989;28;20054;-83
2021/10/24 01:29:16;;;;;;;10.30;7.82;;;;;;;3.46;71.59;101521.84;4999467;28;20065;-83
2021/10/24 01:31:43;;;;;;;14.70;8.82;;;;;;;3.50;71.97;101512.03;4999212;28;20054;-82
2021/10/24 01:34:13;;;;;;;12.07;8.93;;;;;;;3.48;72.40;101516.13;4999009;28;20065;-82
2021/10/24 01:36:42;;;;;;;11.23;8.50;;;;;;;3.46;72.27;101510.84;5004562;28;20051;-82
2021/10/24 01:39:10;;;;;;;12.87;8.67;;;;;;;3.47;72.14;101508.94;5000593;28;20050;-82
2021/10/24 01:41:39;;;;;;;13.48;8.82;;;;;;;3.40;72.81;101507.16;4999729;28;20524;-82
2021/10/24 01:44:06;;;;;;;13.13;9.23;;;;;;;3.47;72.53;101506.19;4999250;28;20069;-82
2021/10/24 01:46:34;;;;;;;13.52;9.77;;;;;;;3.43;72.50;101497.56;4999265;28;20058;-82
2021/10/24 01:49:03;;;;;;;15.27;9.60;;;;;;;3.47;72.98;101500.69;4999447;28;20407;-82
2021/10/24 01:51:31;;;;;;;13.60;9.70;;;;;;;3.49;72.86;101487.50;4987230;28;20055;-82
2021/10/24 01:53:59;;;;;;;14.23;9.50;;;;;;;3.52;72.45;101487.84;4998117;28;20058;-81
2021/10/24 01:56:27;;;;;;;13.02;9.73;;;;;;;3.45;72.77;101487.97;4999339;28;20050;-81
2021/10/24 01:58:54;;;;;;;12.98;9.43;;;;;;;3.47;72.30;101485.00;4981894;28;20411;-81
2021/10/24 02:01:22;;;;;;;14.88;9.40;;;;;;;3.48;71.99;101480.31;4986003;28;20054;-82
2021/10/24 02:03:49;;;;;;;14.85;9.95;;;;;;;3.42;72.52;101476.59;4998168;28;20046;-82
2021/10/24 02:06:17;;;;;;;13.25;9.18;;;;;;;3.40;72.59;101481.50;4998463;28;20062;-81
2021/10/24 02:08:44;;;;;;;12.20;9.30;;;;;;;3.40;72.39;101476.00;4998232;28;20046;-81
2021/10/24 02:11:16;;;;;;;11.07;8.55;;;;;;;3.44;72.69;101475.31;4998742;28;20046;-82
2021/10/24 02:13:43;;;;;;;12.85;8.80;;;;;;;3.29;72.71;101471.34;4995348;28;20061;-81
2021/10/24 02:16:10;;;;;;;11.52;8.50;;;;;;;3.34;72.76;101471.47;4979247;28;20418;-81
2021/10/24 02:18:38;;;;;;;12.23;8.95;;;;;;;3.39;72.38;101472.41;4990504;28;20058;-82
2021/10/24 02:21:06;;;;;;;13.05;9.38;;;;;;;3.38;71.92;101469.91;4989771;28;20065;-81
2021/10/24 02:23:33;;;;;;;13.38;8.52;;;;;;;3.36;72.24;101458.28;4985671;28;20511;-82
2021/10/24 02:26:00;;;;;;;10.75;8.00;;;;;;;3.29;72.54;101458.41;4998669;28;20069;-82
2021/10/24 02:28:29;;;;;;;11.80;7.97;;;;;;;3.33;72.15;101461.53;4999624;28;20054;-82
2021/10/24 02:30:57;;;;;;;13.13;8.25;;;;;;;3.28;72.24;101451.25;4982279;28;20058;-82
2021/10/24 02:33:24;;;;;;;12.32;8.40;;;;;;;3.28;72.55;101450.44;4990826;28;20043;-82
2021/10/24 02:35:52;;;;;;;11.23;8.32;;;;;;;3.31;72.29;101447.16;4989063;28;20061;-82
2021/10/24 02:38:20;;;;;;;11.93;8.68;;;;;;;3.31;71.98;101452.69;4998721;28;20065;-82
2021/10/24 02:40:47;;;;;;;11.98;8.32;;;;;;;3.30;71.97;101445.47;4999965;28;20061;-82
2021/10/24 02:43:14;;;;;;;11.38;8.32;;;;;;;3.22;72.11;101446.72;5000301;28;20042;-82
2021/10/24 02:45:43;;;;;;;13.75;8.60;;;;;;;3.23;71.79;101448.38;4995498;28;20442;-82
2021/10/24 02:48:10;;;;;;;12.85;8.65;;;;;;;3.22;72.63;101444.78;4992005;28;20047;-82
2021/10/24 02:50:39;;;;;;;12.13;8.23;;;;;;;3.23;71.82;101443.72;4995650;28;21122;-82
2021/10/24 02:53:07;;;;;;;15.93;8.50;;;;;;;3.21;72.54;101436.75;4994952;28;20054;-82
2021/10/24 02:55:34;;;;;;;11.40;8.02;;;;;;;3.19;72.18;101439.78;4990788;28;20074;-82
2021/10/24 02:58:02;;;;;;;11.35;8.60;;;;;;;3.18;71.51;101431.75;4977969;28;20047;-82
2021/10/24 03:00:31;;;;;;;11.70;7.68;;;;;;;3.18;72.20;101431.75;4978555;28;20055;-82
2021/10/24 03:03:00;;;;;;;11.00;7.40;;;;;;;3.18;72.59;101435.34;4978528;28;20050;-82
2021/10/24 03:05:31;;;;;;;12.02;8.52;;;;;;;3.20;72.45;101422.16;4977878;28;20059;-82
2021/10/24 03:07:58;;;;;;;12.15;8.00;;;;;;;3.16;72.28;101428.41;4988239;28;20043;-81
2021/10/24 03:10:28;;;;;;;15.38;9.57;;;;;;;3.12;72.21;101427.22;4997432;28;20053;-82
2021/10/24 03:12:55;;;;;;;;;;;;;;;3.12;72.34;101429.97;4983659;28;20065;-82
2021/10/24 03:15:22;;;;;;;11.23;8.52;;;;;;;3.12;72.42;101416.19;4977397;28;19933;-82
2021/10/24 03:17:50;;;;;;;10.75;7.85;;;;;;;3.06;72.57;101434.50;4977143;28;20055;-82
2021/10/24 03:20:18;;;;;;;12.00;8.30;;;;;;;3.11;71.72;101425.53;4978288;28;20054;-82
2021/10/24 03:22:46;;;;;;;13.30;8.10;;;;;;;3.08;71.97;101421.34;4991221;28;20050;-82
2021/10/24 03:25:13;;;;;;;11.60;8.52;;;;;;;3.06;72.13;101423.50;4995608;28;20049;-82
2021/10/24 03:27:40;;;;;;;11.57;8.05;;;;;;;3.02;72.15;101425.06;4995840;28;20058;-82
2021/10/24 03:30:09;;;;;;;12.40;8.35;;;;;;;3.02;71.86;101427.81;4995709;28;20057;-81
2021/10/24 03:32:37;;;;;;;11.07;8.18;;;;;;;3.02;71.50;101419.56;4996263;28;20051;-82
2021/10/24 03:35:07;;;;;;;10.10;7.40;;;;;;;3.03;72.26;101421.25;4995863;28;20059;-81
2021/10/24 03:37:37;;;;;;;12.45;8.40;;;;;;;3.03;71.77;101418.50;4995387;28;20058;-82
2021/10/24 03:40:06;;;;;;;10.90;8.25;;;;;;;3.03;71.79;101407.47;4998395;28;20050;-82
2021/10/24 03:42:33;;;;;;;10.85;7.75;;;;;;;3.03;71.65;101413.81;4982293;28;20055;-81
2021/10/24 03:45:00;;;;;;;12.68;8.75;;;;;;;2.95;72.09;101416.94;4975865;28;20058;-82
2021/10/24 03:47:28;;;;;;;13.02;8.70;;;;;;;2.94;71.66;101411.66;4976140;28;20057;-82
2021/10/24 03:49:55;;;;;;;12.00;8.65;;;;;;;2.92;72.43;101413.81;4985394;28;20514;-82
2021/10/24 03:52:22;;;;;;;12.93;9.02;;;;;;;2.96;72.11;101421.38;4987308;28;20518;-82
2021/10/24 03:54:52;;;;;;;12.50;8.23;;;;;;;2.93;72.45;101418.25;4995279;28;20054;-82
2021/10/24 03:57:19;;;;;;;10.70;7.78;;;;;;;2.94;72.07;101406.16;4995562;28;20055;-82
2021/10/24 03:59:46;;;;;;;12.52;8.73;;;;;;;2.97;71.79;101420.28;4996342;28;20051;-82
2021/10/24 04:02:14;;;;;;;9.85;7.15;;;;;;;2.94;71.73;101419.91;4994571;28;20062;-82
2021/10/24 04:04:41;;;;;;;11.68;7.82;;;;;;;2.95;71.85;101410.59;4980163;28;20054;-82
2021/10/24 04:07:08;;;;;;;11.25;7.60;;;;;;;2.95;71.45;101416.09;4998196;28;20062;-82
2021/10/24 04:09:36;;;;;;;12.10;8.43;;;;;;;2.88;72.26;101415.38;4998083;28;20049;-82
2021/10/24 04:12:06;;;;;;;11.45;7.93;;;;;;;2.86;72.36;101415.63;4997726;28;20058;-81
2021/10/24 04:14:33;;;;;;;;;;;;;;;2.80;72.38;101406.41;4998643;28;20062;-81
2021/10/24 04:17:01;;;;;;;10.20;7.45;;;;;;;2.82;72.11;101401.50;4997431;28;19922;-81
2021/10/24 04:19:28;;;;;;;11.40;7.80;;;;;;;2.81;71.85;101397.09;4993338;28;20081;-82
2021/10/24 04:21:56;;;;;;;12.32;7.97;;;;;;;2.83;72.15;101403.19;4993944;28;20050;-81
2021/10/24 04:24:24;;;;;;;11.55;8.02;;;;;;;2.81;72.20;101408.09;4977773;28;20062;-82
2021/10/24 04:26:51;;;;;;;10.93;7.50;;;;;;;2.80;72.53;101405.59;4978771;28;20062;-82
2021/10/24 04:29:20;;;;;;;15.35;8.43;;;;;;;2.74;72.21;101396.34;4978200;28;20057;-82
2021/10/24 04:31:49;;;;;;;10.90;7.88;;;;;;;2.75;72.06;101395.31;4984360;28;20054;-81
2021/10/24 04:34:16;;;;;;;11.68;7.25;;;;;;;2.75;72.56;101402.69;4978342;28;20055;-81
2021/10/24 04:36:44;;;;;;;13.73;7.93;;;;;;;2.75;72.53;101391.69;4997096;28;20055;-81
2021/10/24 04:39:11;;;;;;;11.52;7.35;;;;;;;2.78;72.52;101392.06;4997231;28;20499;-81
2021/10/24 04:41:39;;;;;;;11.38;7.70;;;;;;;2.81;72.22;101383.34;4996562;28;20050;-82
2021/10/24 04:44:06;;;;;;;10.93;7.53;;;;;;;2.80;72.00;101383.56;4978588;28;20043;-81
2021/10/24 04:46:35;;;;;;;10.48;7.40;;;;;;;2.73;72.13;101372.69;4978238;28;20055;-81
2021/10/24 04:49:02;;;;;;;11.60;7.40;;;;;;;2.72;72.21;101373.75;4982840;28;20046;-82
2021/10/24 04:51:30;;;;;;;11.10;7.38;;;;;;;2.72;72.28;101379.25;4994922;28;20054;-81
2021/10/24 04:53:57;;;;;;;10.20;7.53;;;;;;;2.71;71.96;101376.75;4998172;28;20050;-82
2021/10/24 04:56:24;;;;;;;10.10;7.10;;;;;;;2.73;72.01;101369.09;4997350;28;20061;-81
2021/10/24 04:58:52;;;;;;;11.57;7.75;;;;;;;2.74;72.50;101362.53;4997302;28;20046;-81
2021/10/24 05:01:19;;;;;;;13.32;7.75;;;;;;;2.73;71.60;101358.94;4997074;28;20062;-82
2021/10/24 05:03:49;;;;;;;12.57;7.60;;;;;;;2.71;71.47;101363.84;4983398;28;20055;-82
2021/10/24 05:06:16;;;;;;;10.02;7.60;;;;;;;2.71;71.83;101365.72;4978936;28;20055;-82
2021/10/24 05:08:43;;;;;;;10.45;7.70;;;;;;;2.66;71.85;101358.22;4980674;28;20055;-82
2021/10/24 05:11:11;;;;;;;11.52;7.63;;;;;;;2.63;72.04;101364.22;4976987;28;20054;-81
2021/10/24 05:13:39;;;;;;;11.00;7.22;;;;;;;2.60;72.17;101356.41;4993409;28;20050;-82
2021/10/24 05:16:06;;;;;;;11.38;7.85;;;;;;;2.66;71.90;101347.22;4996814;28;20054;-82
2021/10/24 05:18:34;;;;;;;11.95;8.35;;;;;;;2.66;72.27;101351.88;4997349;28;20054;-82
2021/10/24 05:21:03;;;;;;;10.52;7.78;;;;;;;2.69;71.70;101349.50;4991766;28;20053;-82
2021/10/24 05:23:31;;;;;;;10.98;7.60;;;;;;;2.67;72.50;101346.16;4994035;28;20396;-82
2021/10/24 05:26:00;;;;;;;11.32;7.85;;;;;;;2.70;71.90;101353.06;4977536;28;20058;-82
2021/10/24 05:28:27;;;;;;;9.15;7.45;;;;;;;2.71;72.09;101350.09;4993950;28;20054;-82
2021/10/24 05:30:55;;;;;;;9.50;7.70;;;;;;;2.73;71.76;101347.06;4999997;28;20054;-82
2021/10/24 05:33:26;;;;;;;11.10;7.53;;;;;;;2.70;71.63;101342.91;5001320;28;20402;-82
2021/10/24 05:35:54;;;;;;;10.05;7.43;;;;;;;2.70;72.16;101336.56;4986759;28;20061;-82
2021/10/24 05:38:24;;;;;;;12.77;8.23;;;;;;;2.65;71.82;101340.03;4982220;28;20053;-82
2021/10/24 05:40:52;;;;;;;12.02;7.40;;;;;;;2.63;71.67;101336.69;4981772;28;20050;-83
2021/10/24 05:43:19;;;;;;;11.60;8.13;;;;;;;2.61;72.45;101336.94;4997928;28;20061;-82
2021/10/24 05:45:49;;;;;;;11.52;7.88;;;;;;;2.66;71.59;101338.13;4982047;28;20055;-82
2021/10/24 05:48:19;;;;;;;13.65;8.15;;;;;;;2.54;72.02;101327.13;4996106;28;20538;-82
2021/10/24 05:50:47;;;;;;;10.60;8.15;;;;;;;2.55;71.88;101334.31;5001568;28;20043;-82
2021/10/24 05:53:15;;;;;;;11.70;8.32;;;;;;;2.59;71.33;101330.00;5000630;28;20051;-82
2021/10/24 05:55:45;;;;;;;10.20;7.90;;;;;;;2.58;71.21;101331.06;4990330;28;20062;-82
2021/10/24 05:58:13;;;;;;;9.80;7.90;;;;;;;2.43;72.16;101337.88;4980486;28;20126;-82
2021/10/24 06:00:40;;;;;;;12.88;9.10;;;;;;;2.55;71.68;101328.81;4989275;28;20057;-83
2021/10/24 06:03:08;;;;;;;8.90;7.03;;;;;;;2.61;71.68;101333.34;4997940;28;20422;-82
2021/10/24 06:05:36;;;;;;;9.65;7.18;;;;;;;2.59;71.25;101330.84;4997958;28;20061;-82
2021/10/24 06:08:06;;;;;;;12.18;8.10;;;;;;;2.56;71.43;101324.97;4993494;28;20474;-82
2021/10/24 06:10:36;;;;;;;10.93;7.50;;;;;;;2.58;71.61;101334.69;4998409;28;20071;-82
2021/10/24 06:13:07;;;;;;;12.50;8.40;;;;;;;2.57;71.63;101327.47;4990046;28;20054;-82
2021/10/24 06:15:39;;;;;;;9.82;7.68;;;;;;;2.56;71.82;101330.47;4983276;28;20396;-82
2021/10/24 06:18:07;;;;;;;9.70;6.90;;;;;;;2.60;71.67;101317.91;4988769;28;20046;-82
2021/10/24 06:20:35;;;;;;;10.45;7.95;;;;;;;2.65;71.06;101320.78;4993348;28;20066;-82
2021/10/24 06:23:02;;;;;;;10.70;7.57;;;;;;;2.64;71.21;101321.84;4995449;28;20057;-82
2021/10/24 06:25:30;;;;;;;10.85;7.68;;;;;;;2.67;71.27;101326.88;4987841;28;20057;-82
2021/10/24 06:27:57;;;;;;;11.23;8.02;;;;;;;2.70;71.54;101323.66;4980417;28;20058;-82
2021/10/24 06:30:26;;;;;;;12.60;7.25;;;;;;;2.74;70.89;101322.09;4981605;28;20051;-82
2021/10/24 06:32:53;;;;;;;11.10;8.18;;;;;;;2.75;71.08;101315.53;4985089;28;20051;-82
2021/10/24 06:35:21;;;;;;;11.48;7.90;;;;;;;2.75;71.02;101311.91;5000135;28;20066;-82
2021/10/24 06:37:49;;;;;;;12.18;7.32;;;;;;;2.81;71.06;101311.81;4999941;28;20494;-82
2021/10/24 06:40:18;;;;;;;9.75;8.02;;;;;;;3.08;72.20;101300.22;4994638;28;20506;-82
2021/10/24 06:42:46;;;;;;;12.00;7.53;;;;;;;3.40;72.03;101302.50;4991292;28;20050;-82
2021/10/24 06:45:13;;;;;;;7.80;6.47;;;;;;;3.95;71.86;101304.63;5000351;28;20415;-82
2021/10/24 06:47:42;;;;;;;8.73;6.43;;;;;;;4.65;70.59;101307.91;4998359;28;20495;-82
2021/10/24 06:50:11;;;;;;;9.05;5.93;;;;;;;5.27;68.94;101304.84;4999962;28;20054;-81
2021/10/24 06:52:39;;;;;;;7.53;5.50;;;;;;;5.89;66.69;101299.94;5013611;28;20050;-82
2021/10/24 06:55:07;;;;;;;7.63;5.00;;;;;;;6.77;65.11;101296.75;4991076;28;20487;-82
2021/10/24 06:57:46;;;;;;;8.55;5.88;;;;;;;7.39;60.99;101291.44;4998612;28;20057;-82
2021/10/24 07:00:17;;;;;;;8.30;6.77;;;;;;;8.45;60.49;101289.88;4995324;28;20059;-82
2021/10/24 07:02:46;;;;;;;8.73;7.00;;;;;;;9.47;56.77;101271.13;4998917;28;20050;-82
2021/10/24 07:05:15;;;;;;;9.65;6.88;;;;;;;9.78;54.76;101277.34;5000552;28;20419;-83
2021/10/24 07:07:43;;;;;;;11.53;9.30;;;;;;;10.47;51.92;101280.94;5004839;28;20055;-82
2021/10/24 07:10:11;;;;;;;11.00;6.90;;;;;;;11.43;49.31;101284.84;4998973;28;20482;-83
2021/10/24 07:12:39;;;;;;;8.52;6.07;;;;;;;11.35;49.37;101276.00;5002505;28;20043;-83
2021/10/24 07:15:11;;;;;;;8.50;6.05;;;;;;;11.90;48.50;101274.69;5004065;28;20053;-83
2021/10/24 07:17:39;;;;;;;8.68;6.18;;;;;;;13.23;44.94;101262.97;5027333;28;20060;-83
2021/10/24 07:20:12;;;;;;;8.30;6.38;;;;;;;14.30;42.46;101265.19;5008371;28;20050;-85
2021/10/24 07:22:39;;;;;;;8.40;6.53;;;;;;;14.77;42.20;101265.66;5016524;28;20061;-83
2021/10/24 07:25:08;;;;;;;7.57;6.00;;;;;;;15.49;39.91;101266.34;5018803;28;20056;-83
2021/10/24 07:27:35;;;;;;;8.40;6.70;;;;;;;15.89;38.21;101266.22;5002645;28;20054;-84
2021/10/24 07:30:03;;;;;;;7.80;6.68;;;;;;;16.47;36.78;101262.00;5004041;28;20051;-84
2021/10/24 07:32:31;;;;;;;6.22;5.70;;;;;;;17.01;35.19;101256.69;5016657;28;20054;-84
2021/10/24 07:35:01;;;;;;;7.60;5.70;;;;;;;17.46;33.85;101258.06;5001971;28;20057;-83
2021/10/24 07:37:29;;;;;;;5.60;5.03;;;;;;;17.75;33.39;101254.38;4997444;28;20051;-83
2021/10/24 07:39:57;;;;;;;4.95;4.55;;;;;;;18.37;32.23;101255.47;5000148;28;20062;-83
2021/10/24 07:42:25;;;;;;;6.45;4.93;;;;;;;19.23;30.78;101266.88;5015314;28;20065;-83
2021/10/24 07:44:55;;;;;;;6.00;4.80;;;;;;;19.75;30.09;101253.97;5009661;28;20050;-82
2021/10/24 07:47:23;;;;;;;5.65;4.47;;;;;;;20.33;28.91;101258.44;5002265;28;20058;-83
2021/10/24 07:49:50;;;;;;;4.60;4.20;;;;;;;20.84;28.20;101248.09;5001931;28;20499;-83
2021/10/24 07:52:19;;;;;;;4.55;4.05;;;;;;;21.19;27.78;101253.00;4995808;28;20050;-83
2021/10/24 07:54:48;;;;;;;4.30;3.47;;;;;;;21.62;27.13;101247.53;5001053;28;20049;-82
2021/10/24 07:57:15;;;;;;;4.60;4.00;;;;;;;21.75;27.11;101249.03;5002424;28;20054;-83
2021/10/24 07:59:45;;;;;;;6.32;4.45;;;;;;;22.02;26.53;101237.84;5010940;28;20069;-83
2021/10/24 08:02:13;;;;;;;5.10;4.60;;;;;;;22.53;25.99;101240.47;5001407;28;20062;-83
2021/10/24 08:04:40;;;;;;;6.05;4.80;;;;;;;22.86;25.71;101242.66;5007176;28;20050;-83
2021/10/24 08:07:08;;;;;;;6.50;4.55;;;;;;;22.83;25.37;101232.06;5018824;28;20061;-83
2021/10/24 08:09:35;;;;;;;7.15;4.68;;;;;;;23.06;25.75;101234.09;5001242;28;20061;-83
2021/10/24 08:12:04;;;;;;;5.38;4.82;;;;;;;23.29;25.18;101231.22;5009370;28;20058;-83
2021/10/24 08:14:32;;;;;;;6.13;4.78;;;;;;;23.52;25.25;101228.28;5013765;28;20053;-82
2021/10/24 08:17:00;;;;;;;5.13;4.63;;;;;;;24.25;23.98;101225.97;5018254;28;20056;-84
2021/10/24 08:19:31;;;;;;;4.93;4.40;;;;;;;24.76;23.54;101217.91;4992567;28;20058;-83
2021/10/24 08:21:58;;;;;;;7.15;5.07;;;;;;;24.95;23.50;101214.84;4999623;28;20046;-83
2021/10/24 08:24:26;;;;;;;6.10;4.88;;;;;;;25.20;23.17;101212.19;4996950;28;20046;-82
2021/10/24 08:26:56;;;;;;;5.25;4.63;;;;;;;25.58;22.61;101207.13;5002541;28;20058;-82
2021/10/24 08:29:25;;;;;;;5.25;4.75;;;;;;;25.72;22.22;101212.06;4994390;28;20146;-86
2021/10/24 08:31:54;;;;;;;;;;;;;;;25.63;23.07;101209.56;4994996;28;20063;-83
2021/10/24 08:34:24;;;;;;;5.72;5.10;;;;;;;26.15;22.45;101192.25;4998108;28;19922;-83
2021/10/24 08:36:52;;;;;;;6.00;5.18;;;;;;;26.35;22.01;101197.59;4997569;28;20051;-82
2021/10/24 08:39:21;;;;;;;5.20;4.70;;;;;;;26.89;21.26;101189.88;4994906;28;20065;-84
2021/10/24 08:41:54;;;;;;;5.40;4.85;;;;;;;26.95;21.62;101184.59;4995237;28;20061;-83
2021/10/24 08:44:23;;;;;;;5.25;4.75;;;;;;;26.89;21.88;101178.47;4996605;28;20058;-82
2021/10/24 08:46:51;;;;;;;;;;;;;;;26.86;21.85;101177.25;5016047;28;20053;-83
2021/10/24 08:49:19;;;;;;;5.53;4.72;;;;;;;27.43;21.26;101172.66;5009375;28;19929;-82
2021/10/24 08:51:47;;;;;;;6.22;5.18;;;;;;;27.46;21.87;101172.63;4996186;28;20054;-82
2021/10/24 08:54:19;;;;;;;7.43;5.20;;;;;;;27.71;20.74;101177.44;4993965;28;20050;-82
2021/10/24 08:56:47;;;;;;;6.70;5.43;;;;;;;27.92;21.08;101174.50;4997609;28;20058;-82
2021/10/24 08:59:14;;;;;;;6.60;5.25;;;;;;;28.39;20.04;101167.66;5011980;28;20054;-82
2021/10/24 09:01:58;;;;;;;5.88;5.38;;;;;;;28.76;20.42;101166.16;5002017;28;20464;-82
2021/10/24 09:04:25;;;;;;;5.65;5.15;;;;;;;28.94;20.19;101158.22;4997668;28;20054;-82
2021/10/24 09:06:55;;;;;;;5.95;5.35;;;;;;;29.19;19.90;101151.41;4999048;28;20484;-82
2021/10/24 09:09:26;;;;;;;6.22;5.20;;;;;;;29.34;19.94;101152.88;5001211;28;20057;-84
2021/10/24 09:11:56;;;;;;;5.95;5.35;;;;;;;29.42;19.46;101142.94;5006694;28;20399;-82
2021/10/24 09:14:52;;;;;;;4.97;4.47;;;;;;;29.43;19.80;101147.44;4994952;28;20510;-79
2021/10/24 09:17:26;;;;;;;5.03;4.53;;;;;;;29.48;19.38;101135.50;4958134;28;20069;-85
2021/10/24 09:19:57;;;;;;;5.85;4.68;;;;;;;29.60;20.09;101139.03;4997673;28;20107;-82
2021/10/24 09:22:29;;;;;;;5.55;4.45;;;;;;;29.91;19.74;101134.94;5000729;28;20055;-84
2021/10/24 09:25:10;;;;;;;4.65;4.25;;;;;;;30.18;19.19;101125.50;5006868;28;20050;-86
2021/10/24 09:27:46;;;;;;;5.30;4.03;;;;;;;30.54;19.41;101124.94;4997656;28;20046;-83
2021/10/24 09:30:16;;;;;;;6.78;5.40;;;;;;;30.63;18.71;101125.19;5002424;28;20065;-83
2021/10/24 09:32:53;;;;;;;6.55;5.95;;;;;;;30.84;19.20;101126.84;5012768;28;20053;-83
2021/10/24 09:35:29;;;;;;;6.07;5.38;;;;;;;30.95;19.00;101123.81;5015644;28;20054;-82
2021/10/24 09:38:00;;;;;;;5.10;4.28;;;;;;;31.34;18.52;101116.47;5009525;28;20062;-82
2021/10/24 09:40:32;;;;;;;3.95;3.53;;;;;;;31.47;18.52;101111.69;4993824;28;20050;-83
2021/10/24 09:43:19;;;;;;;4.07;3.67;;;;;;;31.77;18.36;101127.06;5005648;28;20047;-80
2021/10/24 09:45:49;;;;;;;4.82;3.33;;;;;;;31.66;18.57;101115.78;4995300;28;20050;-80
2021/10/24 09:48:21;;;;;;;4.80;3.50;;;;;;;31.82;18.23;101111.34;5015750;28;20402;-81
2021/10/24 09:50:52;;;;;;;4.03;3.40;;;;;;;31.98;17.94;101105.59;5010163;28;20069;-85
2021/10/24 09:53:21;;;;;;;4.50;2.90;;;;;;;32.12;17.68;101105.28;5004925;28;20050;-82
2021/10/24 09:56:04;;;;;;;3.67;2.75;;;;;;;32.34;17.40;101108.47;5011091;28;20065;-82
2021/10/24 09:58:33;;;;;;;4.03;2.97;;;;;;;32.61;16.71;101095.03;5019516;28;20061;-82
2021/10/24 10:01:01;;;;;;;4.03;2.55;;;;;;;32.79;16.44;101103.22;5007104;28;20059;-83
2021/10/24 10:03:34;;;;;;;5.20;3.07;;;;;;;32.95;16.64;101101.09;4995569;28;20514;-80
2021/10/24 10:06:03;;;;;;;4.30;2.92;;;;;;;32.81;16.75;101094.91;4990822;28;20827;-86
2021/10/24 10:08:30;;;;;;;;;;;;;;;32.63;16.92;101089.63;4989416;28;20046;-80
2021/10/24 10:11:05;;;;;;;3.58;2.67;;;;;;;33.03;16.62;101089.34;4998796;28;19921;-82
2021/10/24 10:13:39;;;;;;;2.83;2.20;;;;;;;33.11;16.97;101085.81;4999310;28;20050;-82
2021/10/24 10:16:18;;;;;;;3.08;2.30;;;;;;;33.24;16.70;101085.06;4980100;28;20050;-83
2021/10/24 10:19:06;;;;;;;7.55;2.42;;;;;;;32.94;16.67;101075.56;5001076;28;20061;-84
2021/10/24 10:21:35;;;;;;;4.97;2.33;;;;;;;33.29;16.90;101072.97;5000817;28;20054;-84
2021/10/24 10:24:04;;;;;;;4.03;2.15;;;;;;;33.23;16.68;101069.00;5000923;28;20069;-83
2021/10/24 10:26:36;;;;;;;4.75;2.30;;;;;;;33.20;16.53;101069.91;4999892;28;20051;-85
2021/10/24 10:29:07;;;;;;;4.18;1.90;;;;;;;33.29;16.36;101061.41;5000364;28;20529;-83
2021/10/24 10:31:36;;;;;;;3.45;2.13;;;;;;;33.48;15.84;101062.47;5001052;28;20118;-84
2021/10/24 10:34:09;;;;;;;3.42;2.05;;;;;;;33.31;16.07;101050.22;5001279;28;20513;-84
2021/10/24 10:36:57;;;;;;;3.63;1.90;;;;;;;33.64;16.41;101047.97;5000372;28;20069;-84
2021/10/24 10:39:42;;;;;;;4.53;2.17;;;;;;;33.44;16.31;101050.22;5000464;28;20055;-84
2021/10/24 10:42:48;;;;;;;4.25;2.10;;;;;;;33.23;16.95;101054.56;4999842;28;20057;-84
2021/10/24 10:45:45;;;;;;;6.45;2.38;;;;;;;33.03;16.60;101052.63;5000890;28;20220;-84
2021/10/24 10:48:38;;;;;;;3.15;1.92;;;;;;;33.32;16.53;101043.94;4999624;28;20057;-84
2021/10/24 10:51:15;;;;;;;3.13;1.98;;;;;;;33.33;15.96;101036.13;5001087;28;20058;-84
2021/10/24 10:53:56;;;;;;;4.03;2.33;;;;;;;33.47;16.18;101038.53;4999782;28;20050;-84
2021/10/24 10:56:26;;;;;;;3.55;2.00;;;;;;;33.85;15.70;101034.91;5000426;28;20483;-84
2021/10/24 10:58:55;;;;;;;3.90;1.85;;;;;;;34.03;16.48;101027.72;4999505;28;20057;-83
2021/10/24 11:01:26;;;;;;;;;;;;;;;33.92;15.58;101019.41;5000305;28;20054;-84
2021/10/24 11:03:56;;;;;;;4.35;1.70;;;;;;;34.11;15.19;101021.22;4997282;28;19922;-84
2021/10/24 11:06:54;;;;;;;5.22;2.13;;;;;;;34.40;15.26;101025.22;5000643;28;20480;-84
2021/10/24 11:09:43;;;;;;;3.03;1.88;;;;;;;34.23;16.47;101013.84;5000161;28;20054;-83
2021/10/24 11:12:11;;;;;;;3.00;1.85;;;;;;;34.41;15.88;101015.28;5005888;28;20050;-84
2021/10/24 11:14:45;;;;;;;;;;;;;;;34.83;15.36;101015.81;5000108;28;20054;-84
2021/10/24 11:17:34;;;;;;;4.22;1.90;;;;;;;35.01;14.83;101020.13;5000598;28;19929;-84
2021/10/24 11:20:40;;;;;;;2.97;1.95;;;;;;;35.02;15.04;101010.97;5000367;28;20057;-84
2021/10/24 11:23:12;;;;;;;3.25;1.95;;;;;;;33.26;14.37;101019.00;4999862;28;20476;-84
2021/10/24 11:25:41;;;;;;;2.58;1.30;;;;;;;32.46;14.76;101008.06;4999204;28;20050;-84
2021/10/24 11:28:17;;;;;;;3.67;1.45;;;;;;;31.79;15.20;101012.19;4998443;28;20057;-84
2021/10/24 11:30:47;;;;;;;3.03;1.50;;;;;;;31.11;15.51;101005.91;4998463;28;20061;-84
2021/10/24 11:33:15;;;;;;;3.63;1.52;;;;;;;30.87;16.56;101001.50;4998293;28;20054;-83
2021/10/24 11:35:44;;;;;;;3.00;1.42;;;;;;;31.15;16.11;101000.09;4997689;28;20054;-83
2021/10/24 11:38:15;;;;;;;2.45;1.25;;;;;;;31.77;15.42;100991.69;4999416;28;20057;-84